Time;durP1;ratioP1;P1;durP2;ratioP2;P2;SDS_P1;SDS_P2;PMS_P1;PMS_P2;Temp;Humidity;BMP_temperature;BMP_pressure;BME280_temperature;BME280_humidity;BME280_pressure;Samples;Min_cycle;Max_cycle;Signal;HPM_P1;HPM_P2
2022/06/19 00:01:57;;;;;;;6.10;4.10;;;22.40;99.90;;;;;;5067590;28;20421;-86
2022/06/19 00:04:43;;;;;;;12.03;5.33;;;22.30;99.90;;;;;;5067705;28;20474;-85
2022/06/19 00:07:27;;;;;;;8.33;5.07;;;22.20;99.90;;;;;;5071661;28;20447;-87
2022/06/19 00:10:13;;;;;;;7.40;4.70;;;22.20;99.90;;;;;;5063016;28;20401;-86
2022/06/19 00:12:58;;;;;;;7.33;4.93;;;22.10;99.90;;;;;;5063312;28;20398;-86
2022/06/19 00:15:43;;;;;;;7.90;4.90;;;22.10;99.90;;;;;;5063618;28;20486;-86
2022/06/19 00:18:28;;;;;;;8.33;4.90;;;22.00;99.90;;;;;;5063275;28;20390;-86
2022/06/19 00:21:15;;;;;;;6.20;4.83;;;22.00;99.90;;;;;;5063541;28;20417;-86
2022/06/19 00:24:00;;;;;;;9.20;6.50;;;22.00;99.90;;;;;;5062741;28;20508;-86
2022/06/19 00:26:45;;;;;;;8.10;5.17;;;22.00;99.90;;;;;;5062305;28;20406;-87
2022/06/19 00:29:30;;;;;;;6.03;4.10;;;22.00;99.90;;;;;;5062866;28;20425;-87
2022/06/19 00:32:14;;;;;;;7.93;4.83;;;22.00;99.90;;;;;;5064824;28;20406;-86
2022/06/19 00:34:59;;;;;;;12.10;4.90;;;21.90;99.90;;;;;;5066309;28;20428;-86
2022/06/19 00:37:45;;;;;;;16.00;10.33;;;21.80;99.90;;;;;;5066071;28;20453;-86
2022/06/19 00:40:31;;;;;;;8.33;5.37;;;21.80;99.90;;;;;;5064285;28;20797;-86
2022/06/19 00:43:15;;;;;;;14.33;6.10;;;21.90;99.90;;;;;;5063361;28;20801;-86
2022/06/19 00:46:33;;;;;;;11.53;5.60;;;21.90;99.90;;;;;;5064331;28;20469;-86
2022/06/19 00:49:37;;;;;;;8.23;5.77;;;21.90;99.90;;;;;;5064861;28;20387;-86
2022/06/19 00:52:26;;;;;;;9.77;5.90;;;22.00;99.90;;;;;;5064896;28;20413;-87
2022/06/19 00:55:17;;;;;;;14.23;5.60;;;22.10;99.90;;;;;;5069340;28;20523;-85
2022/06/19 00:58:06;;;;;;;7.93;4.20;;;22.10;99.90;;;;;;5074666;28;20471;-84
2022/06/19 01:00:56;;;;;;;13.10;5.43;;;22.10;99.90;;;;;;5075167;28;20398;-86
2022/06/19 01:03:59;;;;;;;9.23;5.87;;;22.20;99.90;;;;;;5077545;28;20401;-85
2022/06/19 01:06:43;;;;;;;14.17;4.93;;;22.10;99.90;;;;;;5078994;28;20409;-84
2022/06/19 01:09:28;;;;;;;7.23;4.80;;;22.10;99.90;;;;;;5079713;28;20414;-83
2022/06/19 01:12:14;;;;;;;11.23;4.90;;;22.10;99.90;;;;;;5079913;28;20421;-85
2022/06/19 01:15:06;;;;;;;6.60;5.33;;;21.90;99.90;;;;;;5079805;28;20452;-85
2022/06/19 01:17:56;;;;;;;14.73;5.73;;;21.80;99.90;;;;;;5079224;28;20472;-84
2022/06/19 01:20:42;;;;;;;9.77;5.27;;;21.90;99.90;;;;;;5071619;28;20440;-87
2022/06/19 01:23:48;;;;;;;12.27;5.37;;;21.90;99.90;;;;;;5069749;28;20398;-86
2022/06/19 01:26:39;;;;;;;7.73;4.93;;;21.70;99.90;;;;;;5066876;28;20748;-86
2022/06/19 01:29:25;;;;;;;10.60;6.43;;;21.60;99.90;;;;;;5067660;28;20398;-86
2022/06/19 01:32:09;;;;;;;7.30;5.57;;;21.60;99.90;;;;;;5067164;28;20394;-86
2022/06/19 01:34:56;;;;;;;13.77;6.47;;;21.50;99.90;;;;;;5067920;28;20402;-87
2022/06/19 01:37:42;;;;;;;9.83;6.67;;;21.50;99.90;;;;;;5067115;28;20445;-86
2022/06/19 01:40:31;;;;;;;7.00;5.20;;;21.50;99.90;;;;;;5067216;28;20394;-86
2022/06/19 01:43:18;;;;;;;12.77;5.30;;;21.60;99.90;;;;;;5067132;28;20486;-86
2022/06/19 01:46:04;;;;;;;11.57;5.97;;;21.70;99.90;;;;;;5066308;28;20438;-86
2022/06/19 01:48:48;;;;;;;7.77;5.47;;;21.80;99.90;;;;;;5065840;28;20398;-86
2022/06/19 01:51:34;;;;;;;6.73;4.70;;;21.90;99.90;;;;;;5064928;28;20390;-86
2022/06/19 01:54:26;;;;;;;6.30;5.60;;;22.00;99.90;;;;;;5065715;28;20390;-87
2022/06/19 01:57:11;;;;;;;6.87;5.40;;;22.00;99.90;;;;;;5037398;28;20465;-87
2022/06/19 01:59:58;;;;;;;8.20;6.00;;;22.10;99.90;;;;;;5066517;28;20432;-87
2022/06/19 02:02:48;;;;;;;6.37;4.70;;;22.00;99.90;;;;;;5067000;28;20386;-86
2022/06/19 02:05:34;;;;;;;11.17;7.13;;;22.10;99.90;;;;;;5066632;28;20378;-86
2022/06/19 02:08:19;;;;;;;5.30;4.83;;;22.10;99.90;;;;;;5067021;28;20416;-86
2022/06/19 02:11:06;;;;;;;12.37;6.20;;;22.10;99.90;;;;;;5067030;28;20417;-87
2022/06/19 02:13:53;;;;;;;13.30;5.17;;;22.10;99.90;;;;;;5065050;28;20394;-86
2022/06/19 02:16:40;;;;;;;10.90;5.80;;;22.10;99.90;;;;;;5064972;28;20449;-86
2022/06/19 02:19:27;;;;;;;12.37;5.50;;;22.10;99.90;;;;;;5065635;28;20513;-87
2022/06/19 02:22:14;;;;;;;12.90;7.53;;;22.20;99.90;;;;;;5051076;28;20382;-86
2022/06/19 02:25:00;;;;;;;5.47;4.63;;;22.20;99.90;;;;;;5065998;28;20440;-87
2022/06/19 02:27:45;;;;;;;6.77;4.50;;;22.10;99.90;;;;;;5066267;28;20389;-86
2022/06/19 02:30:29;;;;;;;7.73;4.67;;;22.00;99.90;;;;;;5067235;28;20425;-86
2022/06/19 02:33:17;;;;;;;16.83;4.50;;;22.00;99.90;;;;;;5065016;28;20426;-87
2022/06/19 02:36:01;;;;;;;6.63;4.97;;;22.00;99.90;;;;;;5065341;28;20398;-87
2022/06/19 02:38:46;;;;;;;10.70;5.17;;;21.90;99.90;;;;;;5065643;28;20390;-87
2022/06/19 02:41:35;;;;;;;14.57;6.47;;;21.80;99.90;;;;;;5065642;28;20398;-86
2022/06/19 02:44:19;;;;;;;7.20;5.03;;;21.90;99.90;;;;;;5065575;28;20771;-86
2022/06/19 02:47:05;;;;;;;11.07;5.30;;;21.80;99.90;;;;;;5064089;28;20937;-86
2022/06/19 02:49:50;;;;;;;8.13;5.50;;;21.70;99.90;;;;;;5049791;28;20460;-87
2022/06/19 02:52:36;;;;;;;8.23;4.60;;;21.50;99.90;;;;;;5063707;28;20409;-87
2022/06/19 02:55:21;;;;;;;8.70;4.00;;;21.50;99.90;;;;;;5049794;28;20425;-86
2022/06/19 02:58:06;;;;;;;7.40;4.27;;;21.40;99.90;;;;;;5062548;28;20452;-87
2022/06/19 03:00:52;;;;;;;8.80;5.27;;;21.40;99.90;;;;;;5063457;28;20401;-86
2022/06/19 03:03:37;;;;;;;16.83;5.33;;;21.40;99.90;;;;;;5063172;28;20446;-87
2022/06/19 03:06:22;;;;;;;15.23;5.73;;;21.50;99.90;;;;;;5063440;28;20406;-86
2022/06/19 03:09:07;;;;;;;9.73;4.63;;;21.50;99.90;;;;;;5049299;28;20398;-86
2022/06/19 03:11:52;;;;;;;13.53;5.07;;;21.50;99.90;;;;;;5048815;28;20429;-86
2022/06/19 03:14:37;;;;;;;10.57;5.60;;;21.50;99.90;;;;;;5063284;28;20914;-87
2022/06/19 03:17:22;;;;;;;6.97;4.90;;;21.50;99.90;;;;;;5063646;28;20461;-86
2022/06/19 03:20:10;;;;;;;12.20;5.73;;;21.50;99.90;;;;;;5065741;28;20398;-86
2022/06/19 03:22:55;;;;;;;4.97;3.93;;;21.50;99.90;;;;;;5065550;28;20394;-86
2022/06/19 03:25:41;;;;;;;8.27;5.27;;;21.50;99.90;;;;;;5064869;28;20398;-86
2022/06/19 03:28:28;;;;;;;6.30;5.10;;;21.50;99.90;;;;;;5064912;28;20402;-87
2022/06/19 03:31:19;;;;;;;5.30;4.40;;;21.40;99.90;;;;;;5066508;28;20394;-85
2022/06/19 03:34:04;;;;;;;9.50;5.50;;;21.10;99.90;;;;;;5065469;28;20405;-85
2022/06/19 03:36:48;;;;;;;11.73;5.07;;;20.90;99.90;;;;;;5066350;28;20477;-85
2022/06/19 03:39:33;;;;;;;10.27;5.27;;;20.90;99.90;;;;;;5066470;28;20385;-85
2022/06/19 03:42:19;;;;;;;8.43;5.33;;;20.90;99.90;;;;;;5064395;28;20894;-85
2022/06/19 03:45:05;;;;;;;8.80;4.90;;;20.80;99.90;;;;;;5066794;28;20452;-85
2022/06/19 03:47:53;;;;;;;11.20;4.40;;;20.90;99.90;;;;;;5051540;28;20412;-85
2022/06/19 03:50:41;;;;;;;8.47;4.93;;;20.90;99.90;;;;;;5029641;28;20430;-85
2022/06/19 03:53:27;;;;;;;12.40;6.00;;;20.90;99.90;;;;;;5030419;28;20402;-85
2022/06/19 03:56:16;;;;;;;5.17;4.33;;;20.90;99.90;;;;;;5029714;28;20470;-86
2022/06/19 03:59:02;;;;;;;12.70;5.17;;;21.00;99.90;;;;;;5030186;28;20496;-85
2022/06/19 04:01:46;;;;;;;6.83;5.53;;;21.20;99.90;;;;;;5030185;28;20386;-85
2022/06/19 04:04:30;;;;;;;9.33;5.30;;;21.40;99.90;;;;;;5044334;28;20413;-85
2022/06/19 04:07:16;;;;;;;12.07;5.17;;;21.50;99.90;;;;;;5045580;28;20396;-87
2022/06/19 04:10:02;;;;;;;16.17;5.93;;;21.50;99.90;;;;;;5030998;28;20510;-85
2022/06/19 04:12:47;;;;;;;12.17;6.27;;;21.50;99.90;;;;;;5043293;28;20441;-86
2022/06/19 04:15:32;;;;;;;6.47;4.70;;;21.30;99.90;;;;;;5043521;28;20417;-86
2022/06/19 04:18:17;;;;;;;8.93;5.47;;;21.00;99.90;;;;;;5028260;28;20398;-86
2022/06/19 04:21:03;;;;;;;9.80;5.30;;;20.70;99.90;;;;;;5025935;28;20406;-87
2022/06/19 04:23:49;;;;;;;7.80;4.83;;;20.70;99.90;;;;;;5073523;28;20405;-86
2022/06/19 04:26:37;;;;;;;12.23;5.43;;;20.60;99.90;;;;;;5078154;28;20393;-86
2022/06/19 04:29:22;;;;;;;13.40;5.33;;;20.50;99.90;;;;;;5077812;28;20401;-86
2022/06/19 04:32:07;;;;;;;10.90;5.60;;;20.20;99.90;;;;;;5078210;28;20718;-85
2022/06/19 04:34:52;;;;;;;11.27;6.30;;;20.40;99.90;;;;;;5077742;28;20394;-85
2022/06/19 04:37:36;;;;;;;9.10;5.13;;;20.40;99.90;;;;;;5072935;28;20464;-86
2022/06/19 04:40:21;;;;;;;8.17;5.23;;;20.60;99.90;;;;;;5069856;28;20386;-86
2022/06/19 04:43:06;;;;;;;8.47;5.77;;;20.70;99.90;;;;;;5068821;28;20471;-86
2022/06/19 04:45:51;;;;;;;6.23;5.40;;;20.80;99.90;;;;;;5069102;28;20386;-86
2022/06/19 04:48:37;;;;;;;13.67;5.73;;;20.80;99.90;;;;;;5068595;28;20389;-86
2022/06/19 04:51:21;;;;;;;14.90;5.60;;;21.00;99.90;;;;;;5069226;28;20394;-85
2022/06/19 04:54:06;;;;;;;13.67;6.23;;;20.80;99.90;;;;;;5069200;28;20415;-84
2022/06/19 04:56:51;;;;;;;8.93;6.10;;;21.00;99.90;;;;;;5069906;28;20984;-85
2022/06/19 04:59:36;;;;;;;10.30;5.77;;;21.00;99.90;;;;;;5069139;28;20406;-86
2022/06/19 05:02:20;;;;;;;6.10;4.93;;;21.10;99.90;;;;;;5075885;28;20413;-86
2022/06/19 05:05:06;;;;;;;8.27;5.60;;;21.10;99.90;;;;;;5067889;28;20515;-86
2022/06/19 05:07:51;;;;;;;9.33;6.10;;;21.20;99.90;;;;;;5067374;28;20409;-86
2022/06/19 05:10:35;;;;;;;5.73;5.10;;;21.20;99.90;;;;;;5066618;28;20397;-86
2022/06/19 05:13:22;;;;;;;9.17;5.90;;;21.30;99.90;;;;;;5067719;28;20793;-86
2022/06/19 05:16:11;;;;;;;12.60;5.97;;;21.40;99.90;;;;;;5067739;28;20390;-86
2022/06/19 05:18:56;;;;;;;9.13;6.10;;;21.50;99.90;;;;;;5067397;28;20419;-86
2022/06/19 05:21:41;;;;;;;13.57;5.83;;;21.70;99.90;;;;;;5066006;28;20394;-86
2022/06/19 05:24:26;;;;;;;12.37;5.63;;;21.90;99.90;;;;;;5066505;28;20886;-86
2022/06/19 05:27:11;;;;;;;8.67;5.30;;;22.10;99.90;;;;;;5064874;28;20393;-86
2022/06/19 05:29:56;;;;;;;5.60;4.37;;;22.10;99.90;;;;;;5065928;28;20386;-86
2022/06/19 05:32:41;;;;;;;7.63;5.53;;;22.10;99.90;;;;;;5066166;28;20944;-86
2022/06/19 05:35:25;;;;;;;6.53;5.93;;;22.20;99.90;;;;;;5051708;28;20545;-86
2022/06/19 05:38:12;;;;;;;10.00;5.23;;;22.30;99.90;;;;;;5065907;28;20502;-86
2022/06/19 05:40:59;;;;;;;9.43;4.97;;;22.50;99.90;;;;;;5066542;28;20390;-86
2022/06/19 05:43:47;;;;;;;9.90;5.60;;;22.60;99.90;;;;;;5066941;28;20406;-86
2022/06/19 05:46:32;;;;;;;8.40;5.50;;;22.70;99.90;;;;;;5066384;28;20394;-86
2022/06/19 05:49:17;;;;;;;5.43;4.30;;;22.90;99.90;;;;;;5065177;28;20398;-86
2022/06/19 05:52:03;;;;;;;7.00;4.33;;;23.10;99.90;;;;;;5065901;28;20394;-86
2022/06/19 05:54:48;;;;;;;5.20;3.90;;;23.30;99.90;;;;;;5065891;28;20394;-87
2022/06/19 05:57:34;;;;;;;6.10;4.07;;;23.50;99.90;;;;;;5050384;28;20450;-87
2022/06/19 06:00:18;;;;;;;5.50;4.07;;;23.60;99.90;;;;;;5066367;28;20398;-86
2022/06/19 06:03:03;;;;;;;7.10;3.90;;;23.60;99.90;;;;;;5064915;28;20390;-87
2022/06/19 06:05:48;;;;;;;6.13;4.63;;;23.80;99.90;;;;;;5064506;28;20795;-86
2022/06/19 06:08:35;;;;;;;5.10;4.70;;;23.90;99.90;;;;;;5065094;28;20397;-87
2022/06/19 06:11:21;;;;;;;4.93;4.27;;;23.90;99.90;;;;;;5064283;28;20401;-86
2022/06/19 06:14:05;;;;;;;5.03;4.53;;;24.00;99.90;;;;;;5064686;28;20390;-86
2022/06/19 06:16:50;;;;;;;4.60;4.30;;;24.20;99.90;;;;;;5065414;28;20512;-87
2022/06/19 06:19:35;;;;;;;5.40;4.20;;;24.30;99.90;;;;;;5064859;28;20428;-87
2022/06/19 06:22:19;;;;;;;8.23;4.07;;;24.40;99.90;;;;;;5050287;28;20402;-86
2022/06/19 06:25:04;;;;;;;5.90;2.83;;;24.50;99.90;;;;;;5063453;28;20424;-86
2022/06/19 06:27:49;;;;;;;4.07;3.67;;;24.60;99.90;;;;;;5063518;28;20397;-86
2022/06/19 06:30:33;;;;;;;10.37;3.70;;;24.70;99.90;;;;;;5065328;28;20420;-86
2022/06/19 06:33:17;;;;;;;5.13;3.63;;;24.90;99.90;;;;;;5064061;28;20421;-87
2022/06/19 06:36:03;;;;;;;8.73;4.80;;;24.90;99.90;;;;;;5063794;28;20393;-87
2022/06/19 06:38:47;;;;;;;7.23;2.93;;;25.00;99.90;;;;;;5063941;28;20421;-86
2022/06/19 06:41:32;;;;;;;5.93;3.43;;;25.10;99.90;;;;;;5064611;28;20389;-87
2022/06/19 06:44:17;;;;;;;3.70;3.23;;;25.20;99.90;;;;;;5064145;28;20390;-86
2022/06/19 06:47:02;;;;;;;4.07;3.77;;;25.30;99.90;;;;;;5064666;28;20460;-86
2022/06/19 06:49:47;;;;;;;5.00;3.77;;;25.30;99.90;;;;;;5064995;28;20429;-87
2022/06/19 06:52:32;;;;;;;5.13;3.30;;;25.50;99.90;;;;;;5063390;28;20509;-87
2022/06/19 06:55:17;;;;;;;9.17;3.30;;;25.50;99.90;;;;;;5064698;28;20430;-87
2022/06/19 06:58:03;;;;;;;5.17;3.43;;;25.60;99.90;;;;;;5036139;28;20764;-86
2022/06/19 07:00:48;;;;;;;9.17;4.33;;;25.70;99.90;;;;;;5063853;28;20398;-84
2022/06/19 07:03:33;;;;;;;8.03;3.30;;;25.70;99.90;;;;;;5064593;28;20398;-86
2022/06/19 07:06:18;;;;;;;6.33;3.83;;;25.80;99.90;;;;;;5063712;28;20797;-86
2022/06/19 07:09:04;;;;;;;5.40;3.60;;;25.90;99.90;;;;;;5064232;28;20401;-88
2022/06/19 07:11:49;;;;;;;4.60;3.80;;;26.00;99.90;;;;;;5064239;28;20515;-86
2022/06/19 07:14:34;;;;;;;5.77;3.70;;;26.10;99.90;;;;;;5064429;28;20397;-85
2022/06/19 07:17:18;;;;;;;3.50;3.20;;;26.20;99.90;;;;;;5063847;28;20449;-87
2022/06/19 07:20:04;;;;;;;5.23;4.83;;;26.20;99.90;;;;;;5062232;28;20856;-86
2022/06/19 07:22:49;;;;;;;4.27;3.87;;;26.30;99.90;;;;;;5065173;28;20425;-86
2022/06/19 07:25:33;;;;;;;5.20;3.83;;;26.40;99.90;;;;;;5063165;28;20482;-87
2022/06/19 07:28:18;;;;;;;8.90;4.30;;;26.40;99.90;;;;;;5042389;28;20468;-87
2022/06/19 07:31:02;;;;;;;7.63;4.37;;;26.50;99.90;;;;;;5030263;28;20395;-86
2022/06/19 07:33:48;;;;;;;5.10;3.90;;;26.60;99.90;;;;;;5017199;28;20391;-87
2022/06/19 07:36:33;;;;;;;10.97;4.50;;;26.70;99.90;;;;;;5030872;28;20505;-86
2022/06/19 07:39:19;;;;;;;4.70;3.83;;;26.70;99.90;;;;;;5041971;28;20446;-86
2022/06/19 07:42:08;;;;;;;12.73;4.37;;;26.80;99.90;;;;;;5027352;28;20410;-86
2022/06/19 07:44:53;;;;;;;5.67;3.80;;;26.90;99.90;;;;;;5027420;28;20429;-87
2022/06/19 07:50:42;;;;;;;5.50;4.70;;;26.90;99.90;;;;;;5040294;28;20397;-85
2022/06/19 07:53:27;;;;;;;4.60;3.80;;;27.00;99.90;;;;;;5041534;28;20410;-86
2022/06/19 07:56:11;;;;;;;6.47;4.37;;;27.10;99.90;;;;;;5041800;28;20966;-86
2022/06/19 07:58:55;;;;;;;5.00;3.77;;;27.20;99.90;;;;;;5051860;28;20405;-86
2022/06/19 08:01:40;;;;;;;4.97;3.93;;;27.40;99.90;;;;;;5063942;28;20459;-88
2022/06/19 08:04:25;;;;;;;9.90;4.03;;;27.50;99.90;;;;;;5063767;28;20405;-87
2022/06/19 08:07:12;;;;;;;6.10;3.70;;;27.50;99.90;;;;;;5064137;28;20397;-87
2022/06/19 08:09:57;;;;;;;9.47;4.90;;;27.60;99.90;;;;;;5063854;28;20416;-86
2022/06/19 08:12:43;;;;;;;6.20;4.50;;;27.70;99.90;;;;;;5068541;28;20393;-86
2022/06/19 08:15:29;;;;;;;5.60;4.13;;;27.70;99.90;;;;;;5070044;28;20393;-87
2022/06/19 08:18:15;;;;;;;5.63;3.67;;;27.80;99.90;;;;;;5068474;28;20460;-87
2022/06/19 08:20:59;;;;;;;11.10;4.00;;;27.90;99.90;;;;;;5068543;28;20468;-87
2022/06/19 08:23:44;;;;;;;10.43;4.77;;;28.00;99.90;;;;;;5067795;28;20465;-87
2022/06/19 08:26:28;;;;;;;5.00;4.27;;;28.20;99.90;;;;;;5068021;28;20389;-87
2022/06/19 08:29:13;;;;;;;7.60;4.33;;;28.30;99.90;;;;;;5067432;28;20447;-86
2022/06/19 08:31:58;;;;;;;6.33;4.40;;;28.40;99.90;;;;;;5068549;28;20385;-86
2022/06/19 08:34:42;;;;;;;8.13;6.43;;;28.40;99.90;;;;;;5053181;28;20751;-86
2022/06/19 08:37:27;;;;;;;9.83;4.20;;;28.60;99.90;;;;;;5068816;28;20440;-86
2022/06/19 08:40:37;;;;;;;6.60;4.30;;;28.80;99.90;;;;;;5068827;28;20397;-87
2022/06/19 08:43:45;;;;;;;7.10;4.40;;;28.80;99.90;;;;;;5069463;28;20393;-87
2022/06/19 08:47:01;;;;;;;4.97;4.03;;;28.90;99.90;;;;;;5067726;28;20428;-87
2022/06/19 08:50:18;;;;;;;7.80;4.50;;;28.80;99.90;;;;;;5069239;28;20413;-87
2022/06/19 08:53:42;;;;;;;5.80;4.83;;;28.90;99.90;;;;;;5068497;28;20424;-87
2022/06/19 08:56:52;;;;;;;5.07;4.57;;;29.00;99.90;;;;;;5067923;28;20476;-86
2022/06/19 09:00:16;;;;;;;9.53;5.20;;;29.10;99.90;;;;;;5068111;28;20417;-87
2022/06/19 09:03:16;;;;;;;10.27;5.93;;;29.30;99.20;;;;;;5070899;28;20413;-86
2022/06/19 09:06:11;;;;;;;6.63;5.20;;;29.40;98.90;;;;;;5069188;28;20473;-86
2022/06/19 09:09:21;;;;;;;6.57;5.50;;;29.50;97.70;;;;;;5069896;28;20389;-86
2022/06/19 09:12:33;;;;;;;8.27;5.07;;;29.60;98.20;;;;;;5068982;28;20945;-87
2022/06/19 09:15:26;;;;;;;7.57;5.37;;;29.70;97.70;;;;;;5069968;28;20377;-86
2022/06/19 09:18:32;;;;;;;6.80;4.33;;;29.80;96.40;;;;;;5070252;28;20489;-87
2022/06/19 09:21:45;;;;;;;7.87;5.80;;;29.90;96.30;;;;;;5070110;28;20405;-87
2022/06/19 09:25:00;;;;;;;13.00;6.33;;;30.00;95.20;;;;;;5066121;28;20465;-86
2022/06/19 09:27:54;;;;;;;8.03;5.60;;;30.10;96.80;;;;;;5065921;28;20437;-86
2022/06/19 09:30:51;;;;;;;13.93;6.40;;;30.30;94.90;;;;;;5065898;28;20447;-86
2022/06/19 09:33:46;;;;;;;8.90;4.90;;;30.60;94.40;;;;;;5068365;28;20806;-86
2022/06/19 09:36:56;;;;;;;8.37;7.00;;;30.80;94.20;;;;;;5066460;28;20511;-87
2022/06/19 09:40:00;;;;;;;14.53;6.10;;;31.00;91.60;;;;;;5065834;28;20409;-84
2022/06/19 09:42:55;;;;;;;9.73;6.50;;;31.10;89.30;;;;;;5066305;28;20404;-88
2022/06/19 09:45:55;;;;;;;9.03;6.30;;;31.20;88.70;;;;;;5066060;28;20739;-87
2022/06/19 09:48:52;;;;;;;10.67;5.63;;;31.30;88.90;;;;;;5066816;28;20397;-86
2022/06/19 09:51:58;;;;;;;9.13;5.83;;;31.40;86.90;;;;;;5064696;28;20382;-86
2022/06/19 09:54:52;;;;;;;13.90;6.40;;;31.40;83.10;;;;;;5066573;28;20389;-87
2022/06/19 09:57:50;;;;;;;6.20;5.60;;;31.50;83.60;;;;;;5051045;28;20453;-86
2022/06/19 10:00:38;;;;;;;10.13;6.90;;;31.60;83.50;;;;;;5065566;28;20494;-87
2022/06/19 10:03:38;;;;;;;9.63;6.70;;;31.80;84.60;;;;;;5066434;28;20398;-86
2022/06/19 10:06:43;;;;;;;10.13;5.70;;;31.80;82.30;;;;;;5069529;28;20478;-86
2022/06/19 10:09:35;;;;;;;9.30;5.63;;;31.80;79.70;;;;;;5064766;28;20390;-87
2022/06/19 10:12:29;;;;;;;11.63;6.33;;;31.90;79.80;;;;;;5051662;28;20390;-86
2022/06/19 10:15:19;;;;;;;13.03;6.10;;;32.00;81.00;;;;;;5066507;28;20838;-86
2022/06/19 10:18:22;;;;;;;10.30;5.90;;;32.00;82.40;;;;;;5064594;28;21007;-86
2022/06/19 10:22:13;;;;;;;11.50;5.97;;;32.10;80.00;;;;;;5064873;28;20390;-86
2022/06/19 10:24:44;;;;;;;18.50;7.37;;;32.30;78.50;;;;;;5065328;28;20417;-86
2022/06/19 10:27:49;;;;;;;7.53;6.73;;;32.30;78.10;;;;;;5065422;28;20834;-86
2022/06/19 10:31:03;;;;;;;7.33;6.63;;;32.40;77.40;;;;;;5066290;28;20539;-87
2022/06/19 10:34:18;;;;;;;9.90;5.10;;;32.40;76.40;;;;;;5042952;28;20743;-87
2022/06/19 10:37:21;;;;;;;7.60;6.80;;;32.50;77.10;;;;;;5053692;28;20461;-87
2022/06/19 10:40:23;;;;;;;10.00;5.87;;;32.50;76.00;;;;;;5054915;28;20454;-87
2022/06/19 10:43:24;;;;;;;11.93;5.97;;;32.80;76.20;;;;;;5066357;28;20711;-86
2022/06/19 10:46:11;;;;;;;9.97;6.90;;;32.80;76.90;;;;;;5065075;28;20474;-87
2022/06/19 10:49:08;;;;;;;11.40;6.40;;;32.90;75.90;;;;;;5065589;28;20401;-86
2022/06/19 10:52:09;;;;;;;14.67;7.00;;;33.10;72.80;;;;;;5065567;28;20389;-86
2022/06/19 10:55:05;;;;;;;7.53;5.60;;;32.90;72.00;;;;;;5066094;28;20153;-86
2022/06/19 10:58:20;;;;;;;9.03;5.90;;;33.10;72.70;;;;;;5065644;28;20512;-86
2022/06/19 11:01:07;;;;;;;6.90;5.37;;;33.30;72.80;;;;;;5066239;28;20170;-86
2022/06/19 11:06:59;;;;;;;5.63;5.10;;;33.40;72.90;;;;;;5064970;28;20239;-87
2022/06/19 11:09:47;;;;;;;14.25;7.63;;;33.50;71.40;;;;;;5065459;28;20158;-85
2022/06/19 11:12:37;;;;;;;7.30;6.28;;;33.50;70.30;;;;;;5066476;28;20171;-86
2022/06/19 11:15:33;;;;;;;8.00;6.03;;;33.50;72.10;;;;;;5066779;28;20205;-86
2022/06/19 11:18:21;;;;;;;11.60;6.07;;;33.50;71.10;;;;;;5049676;28;20256;-86
2022/06/19 11:21:14;;;;;;;11.50;6.93;;;33.70;70.70;;;;;;5064831;28;20166;-87
2022/06/19 11:24:04;;;;;;;10.15;6.43;;;33.80;69.60;;;;;;5064488;28;20162;-87
2022/06/19 11:26:49;;;;;;;13.60;6.50;;;33.90;70.50;;;;;;5048744;28;20162;-87
2022/06/19 11:29:36;;;;;;;7.13;5.80;;;33.80;68.40;;;;;;5064002;28;20178;-86
2022/06/19 11:32:24;;;;;;;9.20;5.78;;;34.00;67.20;;;;;;5063953;28;20205;-86
2022/06/19 11:35:08;;;;;;;10.30;6.45;;;34.00;68.30;;;;;;5065967;28;20233;-85
2022/06/19 11:37:56;;;;;;;10.93;7.25;;;34.10;66.60;;;;;;5064910;28;20186;-85
2022/06/19 11:40:49;;;;;;;13.23;5.60;;;34.20;66.50;;;;;;5009035;28;20180;-84
2022/06/19 11:43:34;;;;;;;11.43;6.90;;;34.00;64.10;;;;;;5008186;28;20540;-85
2022/06/19 11:46:25;;;;;;;11.40;6.40;;;34.00;64.90;;;;;;5021734;28;20179;-86
2022/06/19 11:49:18;;;;;;;13.65;7.80;;;33.80;65.90;;;;;;5022345;28;20225;-84
2022/06/19 11:52:13;;;;;;;10.18;6.47;;;33.80;64.70;;;;;;5022618;28;20159;-85
2022/06/19 11:55:01;;;;;;;10.80;6.93;;;34.00;62.80;;;;;;5043025;28;20226;-86
2022/06/19 11:57:53;;;;;;;11.50;8.13;;;34.00;62.80;;;;;;5042794;28;20230;-86
2022/06/19 12:00:42;;;;;;;18.73;6.75;;;34.30;63.90;;;;;;5015517;28;20187;-86
2022/06/19 12:03:32;;;;;;;7.15;5.50;;;34.40;61.10;;;;;;5028727;28;20180;-86
2022/06/19 12:06:22;;;;;;;9.52;6.07;;;34.70;59.60;;;;;;5015345;28;20191;-86
2022/06/19 12:09:19;;;;;;;6.90;6.18;;;34.60;60.30;;;;;;5016763;28;20207;-86
2022/06/19 12:12:16;;;;;;;11.13;5.95;;;34.60;60.90;;;;;;5020249;28;20195;-86
2022/06/19 12:15:20;;;;;;;10.00;6.30;;;34.70;61.00;;;;;;5028927;28;20191;-86
2022/06/19 12:18:20;;;;;;;14.77;7.45;;;34.40;59.70;;;;;;5028119;28;20222;-86
2022/06/19 12:21:22;;;;;;;8.68;5.43;;;34.50;60.40;;;;;;5015359;28;20643;-86
2022/06/19 12:24:15;;;;;;;20.77;7.15;;;34.80;62.00;;;;;;4987240;28;20217;-86
2022/06/19 12:27:01;;;;;;;7.57;6.05;;;35.10;59.90;;;;;;5041859;28;20211;-86
2022/06/19 12:29:53;;;;;;;16.70;8.00;;;35.10;61.40;;;;;;5014177;28;20243;-86
2022/06/19 12:32:44;;;;;;;16.20;7.30;;;34.90;59.50;;;;;;4982788;28;20551;-85
2022/06/19 12:35:34;;;;;;;6.20;5.43;;;34.90;61.20;;;;;;4968592;28;20205;-88
2022/06/19 12:38:21;;;;;;;7.18;5.95;;;34.80;61.70;;;;;;4968929;28;20240;-86
2022/06/19 12:41:21;;;;;;;10.82;8.25;;;35.40;59.40;;;;;;4982060;28;20286;-88
2022/06/19 12:44:37;;;;;;;10.75;6.75;;;35.40;59.40;;;;;;4989938;28;20224;-85
2022/06/19 12:47:37;;;;;;;7.47;6.80;;;35.60;61.20;;;;;;4987786;28;20282;-87
2022/06/19 12:50:44;;;;;;;12.27;6.85;;;35.80;59.30;;;;;;4988006;28;20193;-86
2022/06/19 12:53:52;;;;;;;11.75;7.00;;;35.40;60.20;;;;;;4988460;28;20367;-88
2022/06/19 12:57:12;;;;;;;15.50;7.90;;;35.70;59.90;;;;;;5001816;28;20235;-86
2022/06/19 13:00:28;;;;;;;8.57;7.15;;;36.20;59.80;;;;;;5003737;28;20165;-87
2022/06/19 13:03:52;;;;;;;7.35;6.65;;;36.10;58.60;;;;;;5035692;28;20194;-85
2022/06/19 13:06:52;;;;;;;15.52;7.75;;;35.70;59.60;;;;;;4994352;28;20189;-86
2022/06/19 13:09:59;;;;;;;11.05;6.80;;;36.50;58.70;;;;;;5008874;28;20181;-85
2022/06/19 13:13:01;;;;;;;6.70;5.72;;;37.10;57.20;;;;;;4980728;28;20223;-87
2022/06/19 13:16:12;;;;;;;10.75;6.78;;;37.40;56.40;;;;;;4992783;28;20214;-87
2022/06/19 13:19:13;;;;;;;12.93;7.28;;;36.40;57.20;;;;;;5005671;28;20185;-87
2022/06/19 13:22:19;;;;;;;10.63;7.45;;;37.00;58.10;;;;;;5005324;28;20214;-86
2022/06/19 13:25:17;;;;;;;10.00;8.20;;;37.30;57.60;;;;;;4991249;28;20250;-87
2022/06/19 13:28:42;;;;;;;10.63;6.78;;;37.60;58.00;;;;;;5005948;28;20191;-86
2022/06/19 13:31:37;;;;;;;13.23;7.68;;;37.60;56.50;;;;;;4992847;28;20228;-86
2022/06/19 13:34:40;;;;;;;11.32;7.15;;;37.60;55.50;;;;;;4970101;28;20281;-85
2022/06/19 13:37:50;;;;;;;11.20;6.53;;;37.70;55.00;;;;;;5029344;28;20226;-85
2022/06/19 13:40:46;;;;;;;14.75;6.70;;;37.80;54.90;;;;;;5063958;28;20563;-84
2022/06/19 13:43:46;;;;;;;11.32;6.38;;;37.50;54.40;;;;;;5051483;28;20167;-85
2022/06/19 13:46:48;;;;;;;9.10;7.00;;;37.70;54.70;;;;;;5050228;28;20247;-88
2022/06/19 13:49:45;;;;;;;12.88;7.88;;;38.00;53.70;;;;;;5049050;28;20170;-86
2022/06/19 13:53:03;;;;;;;12.65;7.10;;;38.30;52.80;;;;;;5048710;28;20159;-82
2022/06/19 13:56:06;;;;;;;8.90;6.88;;;37.50;53.50;;;;;;5048794;28;20230;-85
2022/06/19 13:59:26;;;;;;;10.77;6.22;;;37.50;53.60;;;;;;5065745;28;20163;-84
2022/06/19 14:02:35;;;;;;;16.10;6.53;;;37.80;52.30;;;;;;5065292;28;20171;-83
2022/06/19 14:05:38;;;;;;;12.68;6.60;;;37.60;53.10;;;;;;5065174;28;20182;-85
2022/06/19 14:08:50;;;;;;;9.63;8.18;;;37.40;53.80;;;;;;5037986;28;20342;-86
2022/06/19 14:14:41;;;;;;;7.47;6.13;;;36.90;52.40;;;;;;5064934;28;20213;-87
2022/06/19 14:17:48;;;;;;;13.73;7.63;;;36.60;54.30;;;;;;5064888;28;20546;-85
2022/06/19 14:21:03;;;;;;;8.70;6.75;;;37.00;53.20;;;;;;5066953;28;20190;-86
2022/06/19 14:24:04;;;;;;;8.70;6.18;;;37.20;51.80;;;;;;5049518;28;20202;-85
2022/06/19 14:27:19;;;;;;;8.98;5.72;;;37.50;51.40;;;;;;5064361;28;20171;-87
2022/06/19 14:30:10;;;;;;;9.95;6.03;;;37.20;51.50;;;;;;5064385;28;20251;-86
2022/06/19 14:32:58;;;;;;;13.70;7.60;;;37.20;51.30;;;;;;5035426;28;20224;-85
2022/06/19 14:35:42;;;;;;;10.57;6.82;;;37.10;51.90;;;;;;5049741;28;20166;-87
2022/06/19 14:38:32;;;;;;;9.38;6.97;;;37.30;52.00;;;;;;5063657;28;20244;-86
2022/06/19 14:41:37;;;;;;;7.00;5.65;;;37.20;50.50;;;;;;5021738;28;20635;-87
2022/06/19 14:44:22;;;;;;;5.90;5.40;;;37.20;50.40;;;;;;5039116;28;20217;-88
2022/06/19 14:47:36;;;;;;;9.00;5.97;;;37.40;49.40;;;;;;5049364;28;20169;-85
2022/06/19 14:50:39;;;;;;;8.98;5.60;;;37.30;49.70;;;;;;5050410;28;20210;-86
2022/06/19 14:54:01;;;;;;;10.60;6.15;;;36.90;50.40;;;;;;5064734;28;20202;-86
2022/06/19 14:57:08;;;;;;;8.77;6.35;;;37.40;49.90;;;;;;5064201;28;20229;-87
2022/06/19 15:00:16;;;;;;;9.20;5.53;;;37.00;49.70;;;;;;5022464;28;20163;-85